createdAt,value
2019-02-02T00:02:16.614Z,18.50
2019-02-02T00:04:50.060Z,23.27
2019-02-02T00:07:27.411Z,21.37
2019-02-02T00:09:58.663Z,22.22
2019-02-02T00:12:32.307Z,20.88
2019-02-02T00:15:06.990Z,18.10
2019-02-02T00:17:40.119Z,18.80
2019-02-02T00:20:14.111Z,18.97
2019-02-02T00:22:48.131Z,20.97
2019-02-02T00:25:19.444Z,20.43
2019-02-02T00:27:53.495Z,20.07
2019-02-02T00:30:25.295Z,21.37
2019-02-02T00:32:58.191Z,21.27
2019-02-02T00:35:32.196Z,22.17
2019-02-02T00:38:05.425Z,20.65
2019-02-02T00:40:38.099Z,22.70
2019-02-02T00:43:10.269Z,21.82
2019-02-02T00:45:42.229Z,22.63
2019-02-02T00:48:13.502Z,19.35
2019-02-02T00:50:47.191Z,18.90
2019-02-02T00:53:21.136Z,17.87
2019-02-02T00:55:55.420Z,17.07
2019-02-02T00:58:29.500Z,21.37
2019-02-02T01:01:03.323Z,21.60
2019-02-02T01:03:38.897Z,20.07
2019-02-02T01:06:11.480Z,19.30
2019-02-02T01:08:45.416Z,18.57
2019-02-02T01:11:19.392Z,16.73
2019-02-02T01:13:53.209Z,15.70
2019-02-02T01:16:26.100Z,17.23
2019-02-02T01:18:58.425Z,18.57
2019-02-02T01:21:32.447Z,18.27
2019-02-02T01:24:05.855Z,17.10
2019-02-02T01:26:39.408Z,15.88
2019-02-02T01:29:10.794Z,15.50
2019-02-02T01:31:42.077Z,15.80
2019-02-02T01:34:13.434Z,14.90
2019-02-02T01:36:46.683Z,15.23
2019-02-02T01:39:17.929Z,15.33
2019-02-02T01:41:51.435Z,14.17
2019-02-02T01:44:25.490Z,15.37
2019-02-02T01:46:59.461Z,16.10
2019-02-02T01:49:32.866Z,16.03
2019-02-02T01:52:04.454Z,14.47
2019-02-02T01:54:38.459Z,16.50
2019-02-02T01:57:12.561Z,16.07
2019-02-02T01:59:45.555Z,14.73
2019-02-02T02:02:17.566Z,13.90
2019-02-02T02:04:50.582Z,12.30
2019-02-02T02:07:24.591Z,12.58
2019-02-02T02:09:58.580Z,13.67
2019-02-02T02:12:29.976Z,13.60
2019-02-02T02:15:01.617Z,11.93
2019-02-02T02:17:34.500Z,11.87
2019-02-02T02:20:09.861Z,13.03
2019-02-02T02:22:43.760Z,11.83
2019-02-02T02:25:17.556Z,10.87
2019-02-02T02:27:49.728Z,11.13
2019-02-02T02:30:24.148Z,10.60
2019-02-02T02:32:57.861Z,11.15
2019-02-02T02:35:31.739Z,10.87
2019-02-02T02:38:05.769Z,10.33
2019-02-02T02:40:37.686Z,10.87
2019-02-02T02:43:10.660Z,11.30
2019-02-02T02:45:43.624Z,10.77
2019-02-02T02:48:15.848Z,10.50
2019-02-02T02:50:49.813Z,10.72
2019-02-02T02:53:23.758Z,10.20
2019-02-02T02:55:56.797Z,10.40
2019-02-02T02:58:40.496Z,11.07
2019-02-02T03:01:01.945Z,13.13
2019-02-02T03:03:34.779Z,9.30
2019-02-02T03:06:06.842Z,13.30
2019-02-02T03:08:40.767Z,13.77
2019-02-02T03:11:16.405Z,14.43
2019-02-02T03:13:48.903Z,17.50
2019-02-02T03:16:20.189Z,19.20
2019-02-02T03:18:53.760Z,19.90
2019-02-02T03:21:25.374Z,21.80
2019-02-02T03:23:58.821Z,21.50
2019-02-02T03:26:31.910Z,23.40
2019-02-02T03:29:05.895Z,23.13
2019-02-02T03:31:41.572Z,24.27
2019-02-02T03:34:13.967Z,23.43
2019-02-02T03:36:45.796Z,23.13
2019-02-02T03:39:18.969Z,23.83
2019-02-02T03:41:53.011Z,22.70
2019-02-02T03:44:25.521Z,24.77
2019-02-02T03:46:58.008Z,25.57
2019-02-02T03:49:33.511Z,26.35
2019-02-02T03:52:05.961Z,24.60
2019-02-02T03:54:40.059Z,26.10
2019-02-02T03:57:13.060Z,27.48
2019-02-02T03:59:44.921Z,27.07
2019-02-02T04:02:18.305Z,29.80
2019-02-02T04:04:52.193Z,30.07
2019-02-02T04:07:24.064Z,29.33
2019-02-02T04:09:57.082Z,28.70
2019-02-02T04:12:28.453Z,31.30
2019-02-02T04:14:59.708Z,33.70
2019-02-02T04:17:33.155Z,31.23
2019-02-02T04:20:10.036Z,31.13
2019-02-02T04:22:44.034Z,32.37
2019-02-02T04:25:20.422Z,31.05
2019-02-02T04:27:52.206Z,31.33
2019-02-02T04:30:26.585Z,32.37
2019-02-02T04:33:00.180Z,31.13
2019-02-02T04:35:32.305Z,31.23
2019-02-02T04:38:06.957Z,31.90
2019-02-02T04:40:39.169Z,30.97
2019-02-02T04:43:14.989Z,33.60
2019-02-02T04:45:47.263Z,32.23
2019-02-02T04:48:20.253Z,33.17
2019-02-02T04:50:54.277Z,32.70
2019-02-02T04:53:25.618Z,33.47
2019-02-02T04:55:57.266Z,32.57
2019-02-02T04:58:29.478Z,33.10
2019-02-02T05:01:01.601Z,32.47
2019-02-02T05:03:34.455Z,32.33
2019-02-02T05:06:07.938Z,34.50
2019-02-02T05:08:40.363Z,34.00
2019-02-02T05:11:15.991Z,32.77
2019-02-02T05:13:48.375Z,33.83
2019-02-02T05:16:22.170Z,34.27
2019-02-02T05:18:53.449Z,33.60
2019-02-02T05:21:25.792Z,33.53
2019-02-02T05:23:58.287Z,35.43
2019-02-02T05:26:31.776Z,34.10
2019-02-02T05:29:04.576Z,32.50
2019-02-02T05:31:38.594Z,35.30
2019-02-02T05:34:10.344Z,35.20
2019-02-02T05:36:43.429Z,32.35
2019-02-02T05:39:17.479Z,34.07
2019-02-02T05:41:52.416Z,32.47
2019-02-02T05:44:25.737Z,31.97
2019-02-02T05:46:59.456Z,34.57
2019-02-02T05:49:32.647Z,33.77
2019-02-02T05:52:04.616Z,34.00
2019-02-02T05:54:38.244Z,36.00
2019-02-02T05:57:09.587Z,33.70
2019-02-02T05:59:52.309Z,35.40
2019-02-02T06:02:16.565Z,35.73
2019-02-02T06:04:52.123Z,38.97
2019-02-02T06:07:24.689Z,37.78
2019-02-02T06:09:58.595Z,37.00
2019-02-02T06:12:30.048Z,37.15
2019-02-02T06:15:01.405Z,40.00
2019-02-02T06:17:34.635Z,37.87
2019-02-02T06:20:11.372Z,38.17
2019-02-02T06:22:45.608Z,38.20
2019-02-02T06:25:19.748Z,41.97
2019-02-02T06:27:53.736Z,44.03
2019-02-02T06:30:25.960Z,41.57
2019-02-02T06:32:58.670Z,46.23
2019-02-02T06:35:31.859Z,46.53
2019-02-02T06:38:05.833Z,44.80
2019-02-02T06:40:37.851Z,42.40
2019-02-02T06:43:10.927Z,43.97
2019-02-02T06:45:42.230Z,41.43
2019-02-02T06:48:13.483Z,38.23
2019-02-02T06:50:46.902Z,41.00
2019-02-02T06:53:22.541Z,39.23
2019-02-02T06:55:55.834Z,41.10
2019-02-02T06:58:28.899Z,39.30
2019-02-02T07:01:00.372Z,40.63
2019-02-02T07:03:31.942Z,38.87
2019-02-02T07:06:04.852Z,38.57
2019-02-02T07:08:37.708Z,36.55
2019-02-02T07:11:09.971Z,39.00
2019-02-02T07:13:43.902Z,37.57
2019-02-02T07:16:17.941Z,39.27
2019-02-02T07:18:51.975Z,39.10
2019-02-02T07:21:25.891Z,38.13
2019-02-02T07:23:59.945Z,41.33
2019-02-02T07:26:31.887Z,37.83
2019-02-02T07:29:04.300Z,43.25
2019-02-02T07:31:38.149Z,39.50
2019-02-02T07:34:12.028Z,37.80
2019-02-02T07:36:46.288Z,36.57
2019-02-02T07:39:17.566Z,36.83
2019-02-02T07:41:51.033Z,37.60
2019-02-02T07:44:25.064Z,35.20
2019-02-02T07:46:59.085Z,33.40
2019-02-02T07:49:33.790Z,36.20
2019-02-02T07:52:07.134Z,33.83
2019-02-02T07:54:38.382Z,36.30
2019-02-02T07:57:13.112Z,34.27
2019-02-02T07:59:47.491Z,34.10
2019-02-02T08:02:20.167Z,35.27
2019-02-02T08:04:55.399Z,34.13
2019-02-02T08:07:26.920Z,34.17
2019-02-02T08:09:58.885Z,33.83
2019-02-02T08:12:30.275Z,34.67
2019-02-02T08:15:04.964Z,34.20
2019-02-02T08:17:37.356Z,35.00
2019-02-02T08:20:12.065Z,33.43
2019-02-02T08:22:45.277Z,33.67
2019-02-02T08:25:19.590Z,33.30
2019-02-02T08:27:53.221Z,33.57
2019-02-02T08:30:28.148Z,33.63
2019-02-02T08:33:01.461Z,34.13
2019-02-02T08:35:37.015Z,34.03
2019-02-02T08:38:09.143Z,33.50
2019-02-02T08:40:43.310Z,32.87
2019-02-02T08:43:17.387Z,35.23
2019-02-02T08:45:51.413Z,33.27
2019-02-02T08:48:24.469Z,35.40
2019-02-02T08:50:58.388Z,34.33
2019-02-02T08:53:29.937Z,35.05
2019-02-02T08:56:03.510Z,35.70
2019-02-02T08:58:35.427Z,34.70
2019-02-02T09:01:08.667Z,38.80
2019-02-02T09:03:44.090Z,37.30
2019-02-02T09:06:16.322Z,39.10
2019-02-02T09:08:50.467Z,38.20
2019-02-02T09:11:21.794Z,38.87
2019-02-02T09:13:55.107Z,40.57
2019-02-02T09:16:26.440Z,38.73
2019-02-02T09:19:01.972Z,40.57
2019-02-02T09:21:35.562Z,36.90
2019-02-02T09:24:08.490Z,37.57
2019-02-02T09:26:40.402Z,36.07
2019-02-02T09:29:12.672Z,37.40
2019-02-02T09:31:44.249Z,35.90
2019-02-02T09:34:15.546Z,35.37
2019-02-02T09:36:51.236Z,35.30
2019-02-02T09:39:23.565Z,36.75
2019-02-02T09:41:57.510Z,37.53
2019-02-02T09:44:29.680Z,38.57
2019-02-02T09:47:01.551Z,38.37
2019-02-02T09:49:35.713Z,37.30
2019-02-02T09:52:07.299Z,39.27
2019-02-02T09:54:38.586Z,36.87
2019-02-02T09:57:11.537Z,38.67
2019-02-02T09:59:43.814Z,39.50
2019-02-02T10:02:17.728Z,39.43
2019-02-02T10:04:51.636Z,40.60
2019-02-02T10:07:25.777Z,39.03
2019-02-02T10:09:59.422Z,37.50
2019-02-02T10:12:31.795Z,39.87
2019-02-02T10:15:05.934Z,37.73
2019-02-02T10:17:37.708Z,39.90
2019-02-02T10:20:18.150Z,39.40
2019-02-02T10:22:49.719Z,40.50
2019-02-02T10:25:24.760Z,39.20
2019-02-02T10:27:56.814Z,38.80
2019-02-02T10:30:31.937Z,38.30
2019-02-02T10:33:06.578Z,40.90
2019-02-02T10:35:39.015Z,39.50
2019-02-02T10:38:12.883Z,39.33
2019-02-02T10:40:46.916Z,41.50
2019-02-02T10:43:20.954Z,40.73
2019-02-02T10:45:54.769Z,39.27
2019-02-02T10:48:27.006Z,39.80
2019-02-02T10:50:59.683Z,40.00
2019-02-02T10:53:30.963Z,36.50
2019-02-02T10:56:05.056Z,39.30
2019-02-02T10:58:38.945Z,38.13
2019-02-02T11:01:12.791Z,38.53
2019-02-02T11:03:46.870Z,38.93
2019-02-02T11:06:20.503Z,40.40
2019-02-02T11:08:51.842Z,41.93
2019-02-02T11:11:24.934Z,40.63
2019-02-02T11:13:59.113Z,39.40
2019-02-02T11:16:33.069Z,41.57
2019-02-02T11:19:08.739Z,38.33
2019-02-02T11:21:41.590Z,40.70
2019-02-02T11:24:15.247Z,39.90
2019-02-02T11:26:49.228Z,41.80
2019-02-02T11:29:21.934Z,40.90
2019-02-02T11:32:02.581Z,43.17
2019-02-02T11:34:27.122Z,40.73
2019-02-02T11:37:00.887Z,40.53
2019-02-02T11:39:33.222Z,40.10
2019-02-02T11:42:07.277Z,41.03
2019-02-02T11:44:41.039Z,39.77
2019-02-02T11:47:14.139Z,40.80
2019-02-02T11:49:48.250Z,39.13
2019-02-02T11:52:23.362Z,38.63
2019-02-02T11:54:56.166Z,42.27
2019-02-02T11:57:29.169Z,38.20
2019-02-02T12:00:01.232Z,40.40
2019-02-02T12:02:32.639Z,41.90
2019-02-02T12:05:07.176Z,39.83
2019-02-02T12:07:40.241Z,39.03
2019-02-02T12:10:16.796Z,41.27
2019-02-02T12:12:48.485Z,38.83
2019-02-02T12:15:22.292Z,40.78
2019-02-02T12:17:53.706Z,39.73
2019-02-02T12:20:26.600Z,40.13
2019-02-02T12:22:58.648Z,39.97
2019-02-02T12:25:32.470Z,40.60
2019-02-02T12:28:05.542Z,39.67
2019-02-02T12:30:37.305Z,36.70
2019-02-02T12:33:10.507Z,41.07
2019-02-02T12:35:44.562Z,39.13
2019-02-02T12:38:15.878Z,40.10
2019-02-02T12:40:49.431Z,39.97
2019-02-02T12:43:23.451Z,38.43
2019-02-02T12:45:57.339Z,40.10
2019-02-02T12:48:28.646Z,42.93
2019-02-02T12:51:02.502Z,40.00
2019-02-02T12:53:36.492Z,41.40
2019-02-02T12:56:11.997Z,39.40
2019-02-02T12:58:44.402Z,38.90
2019-02-02T13:01:18.405Z,40.30
2019-02-02T13:04:00.940Z,40.87
2019-02-02T13:06:23.631Z,42.30
2019-02-02T13:08:54.882Z,39.23
2019-02-02T13:11:26.293Z,39.37
2019-02-02T13:13:59.583Z,40.00
2019-02-02T13:16:32.572Z,40.27
2019-02-02T13:19:05.315Z,37.70
2019-02-02T13:21:38.546Z,39.93
2019-02-02T13:24:11.623Z,39.90
2019-02-02T13:26:42.933Z,39.97
2019-02-02T13:29:14.311Z,38.60
2019-02-02T13:31:47.631Z,39.90
2019-02-02T13:34:23.239Z,38.95
2019-02-02T13:36:55.848Z,40.83
2019-02-02T13:39:27.105Z,38.88
2019-02-02T13:42:00.756Z,39.33
2019-02-02T13:44:32.718Z,37.20
2019-02-02T13:47:05.804Z,38.30
2019-02-02T13:49:38.715Z,36.43
2019-02-02T13:52:10.711Z,36.13
2019-02-02T13:54:45.750Z,33.60
2019-02-02T13:57:18.863Z,34.58
2019-02-02T13:59:56.127Z,35.03
2019-02-02T14:02:29.890Z,33.10
2019-02-02T14:05:04.607Z,33.20
2019-02-02T14:07:37.806Z,34.77
2019-02-02T14:10:18.899Z,33.97
2019-02-02T14:12:51.851Z,34.40
2019-02-02T14:15:27.350Z,35.47
2019-02-02T14:17:59.825Z,30.73
2019-02-02T14:20:31.822Z,30.80
2019-02-02T14:23:04.789Z,31.73
2019-02-02T14:25:36.497Z,30.10
2019-02-02T14:28:09.873Z,29.43
2019-02-02T14:30:43.962Z,29.50
2019-02-02T14:33:15.781Z,28.43
2019-02-02T14:35:48.942Z,30.90
2019-02-02T14:38:23.053Z,29.65
2019-02-02T14:40:54.943Z,29.27
2019-02-02T14:43:26.570Z,28.93
2019-02-02T14:45:57.947Z,28.63
2019-02-02T14:48:29.696Z,29.27
2019-02-02T14:51:00.956Z,29.57
2019-02-02T14:53:35.730Z,29.60
2019-02-02T14:56:08.875Z,31.00
2019-02-02T14:58:40.133Z,29.87
2019-02-02T15:01:13.047Z,29.40
2019-02-02T15:03:45.989Z,30.67
2019-02-02T15:06:17.940Z,28.97
2019-02-02T15:08:52.073Z,33.30
2019-02-02T15:11:23.326Z,32.10
2019-02-02T15:13:57.007Z,33.83
2019-02-02T15:16:30.178Z,33.77
2019-02-02T15:19:02.090Z,34.23
2019-02-02T15:21:36.159Z,32.03
2019-02-02T15:24:09.004Z,34.67
2019-02-02T15:26:41.147Z,34.70
2019-02-02T15:29:15.218Z,36.63
2019-02-02T15:31:46.639Z,36.00
2019-02-02T15:34:20.371Z,35.13
2019-02-02T15:36:54.235Z,34.80
2019-02-02T15:39:26.639Z,35.45
2019-02-02T15:41:59.185Z,37.87
2019-02-02T15:44:33.075Z,37.50
2019-02-02T15:47:04.514Z,33.67
2019-02-02T15:49:36.355Z,33.42
2019-02-02T15:52:08.836Z,45.70
2019-02-02T15:54:40.141Z,36.27
2019-02-02T15:57:13.346Z,35.20
2019-02-02T15:59:48.889Z,40.43
2019-02-02T16:02:21.239Z,41.03
2019-02-02T16:04:55.221Z,35.47
2019-02-02T16:07:27.056Z,36.57
2019-02-02T16:10:00.563Z,41.43
2019-02-02T16:12:31.870Z,38.40
2019-02-02T16:15:06.593Z,37.20
2019-02-02T16:17:39.200Z,37.63
2019-02-02T16:20:19.192Z,37.43
2019-02-02T16:22:50.452Z,38.00
2019-02-02T16:25:21.709Z,37.45
2019-02-02T16:27:55.275Z,36.90
2019-02-02T16:30:28.559Z,37.87
2019-02-02T16:33:00.645Z,42.23
2019-02-02T16:35:33.417Z,47.48
2019-02-02T16:38:06.110Z,41.40
2019-02-02T16:40:41.101Z,36.13
2019-02-02T16:43:12.609Z,35.75
2019-02-02T16:45:44.196Z,38.63
2019-02-02T16:48:15.465Z,35.85
2019-02-02T16:50:48.474Z,38.53
2019-02-02T16:53:21.964Z,34.60
2019-02-02T16:55:55.502Z,34.73
2019-02-02T16:58:26.931Z,35.20
2019-02-02T17:00:59.490Z,35.13
2019-02-02T17:03:33.417Z,34.00
2019-02-02T17:06:07.149Z,34.60
2019-02-02T17:08:40.679Z,33.18
2019-02-02T17:11:14.642Z,34.27
2019-02-02T17:13:48.639Z,32.57
2019-02-02T17:16:19.906Z,35.03
2019-02-02T17:18:53.735Z,38.20
2019-02-02T17:21:28.969Z,34.10
2019-02-02T17:23:59.022Z,34.83
2019-02-02T17:26:31.902Z,33.90
2019-02-02T17:29:03.680Z,32.93
2019-02-02T17:31:37.559Z,32.00
2019-02-02T17:34:08.830Z,32.20
2019-02-02T17:36:42.629Z,31.93
2019-02-02T17:39:16.531Z,33.07
2019-02-02T17:41:47.773Z,30.23
2019-02-02T17:44:20.577Z,30.77
2019-02-02T17:46:52.270Z,31.23
2019-02-02T17:49:23.533Z,34.70
2019-02-02T17:51:54.877Z,32.27
2019-02-02T17:54:26.682Z,32.27
2019-02-02T17:56:58.656Z,35.52
2019-02-02T17:59:30.813Z,35.00
2019-02-02T18:02:03.725Z,36.97
2019-02-02T18:04:39.853Z,38.38
2019-02-02T18:07:12.884Z,43.68
2019-02-02T18:09:46.869Z,47.07
2019-02-02T18:12:18.203Z,42.23
2019-02-02T18:14:50.778Z,46.07
2019-02-02T18:17:24.795Z,48.37
2019-02-02T18:19:58.905Z,47.00
2019-02-02T18:22:34.454Z,53.73
2019-02-02T18:25:08.635Z,48.20
2019-02-02T18:27:40.959Z,45.93
2019-02-02T18:30:18.583Z,44.17
2019-02-02T18:32:52.018Z,40.13
2019-02-02T18:35:23.453Z,35.40
2019-02-02T18:37:56.894Z,38.17
2019-02-02T18:40:28.155Z,37.07
2019-02-02T18:43:02.231Z,37.87
2019-02-02T18:45:36.144Z,45.20
2019-02-02T18:48:11.674Z,42.93
2019-02-02T18:50:43.985Z,51.93
2019-02-02T18:53:16.996Z,47.67
2019-02-02T18:56:12.341Z,50.43
2019-02-02T18:58:46.861Z,56.93
2019-02-02T19:01:19.984Z,53.40
2019-02-02T19:03:51.599Z,49.83
2019-02-02T19:06:22.876Z,72.93
2019-02-02T19:08:56.077Z,71.60
2019-02-02T19:11:27.351Z,67.03
2019-02-02T19:14:01.026Z,58.03
2019-02-02T19:16:33.101Z,48.27
2019-02-02T19:19:06.422Z,51.00
2019-02-02T19:21:40.192Z,43.10
2019-02-02T19:24:14.102Z,39.47
2019-02-02T19:26:45.369Z,40.57
2019-02-02T19:29:19.341Z,52.90
2019-02-02T19:31:53.213Z,51.67
2019-02-02T19:34:26.834Z,54.60
2019-02-02T19:36:58.285Z,78.47
2019-02-02T19:39:30.313Z,62.07
2019-02-02T19:42:03.246Z,57.40
2019-02-02T19:44:36.190Z,51.00
2019-02-02T19:47:15.800Z,48.60
2019-02-02T19:49:43.945Z,51.80
2019-02-02T19:52:16.355Z,65.40
2019-02-02T19:54:49.373Z,54.47
2019-02-02T19:57:23.263Z,51.13
2019-02-02T19:59:55.433Z,49.67
2019-02-02T20:02:27.007Z,45.00
2019-02-02T20:04:59.453Z,44.87
2019-02-02T20:07:30.837Z,40.93
2019-02-02T20:10:05.341Z,43.87
2019-02-02T20:12:38.479Z,50.23
2019-02-02T20:15:16.000Z,52.13
2019-02-02T20:17:47.540Z,49.30
2019-02-02T20:20:21.979Z,48.27
2019-02-02T20:22:54.661Z,48.08
2019-02-02T20:25:27.091Z,50.37
2019-02-02T20:27:59.466Z,49.93
2019-02-02T20:30:31.638Z,51.87
2019-02-02T20:33:04.936Z,53.20
2019-02-02T20:35:42.016Z,53.15
2019-02-02T20:38:12.301Z,47.47
2019-02-02T20:40:49.263Z,49.48
2019-02-02T20:43:22.555Z,48.85
2019-02-02T20:45:56.692Z,51.27
2019-02-02T20:48:30.521Z,50.87
2019-02-02T20:51:02.484Z,55.03
2019-02-02T20:53:35.663Z,54.53
2019-02-02T20:56:09.523Z,54.03
2019-02-02T20:58:40.836Z,51.27
2019-02-02T21:01:14.748Z,51.45
2019-02-02T21:03:48.692Z,53.50
2019-02-02T21:06:21.790Z,53.10
2019-02-02T21:08:53.437Z,54.13
2019-02-02T21:11:24.853Z,54.18
2019-02-02T21:14:00.368Z,54.67
2019-02-02T21:16:33.763Z,56.00
2019-02-02T21:19:06.733Z,53.77
2019-02-02T21:21:39.601Z,54.47
2019-02-02T21:24:13.700Z,62.75
2019-02-02T21:26:45.347Z,66.47
2019-02-02T21:29:19.960Z,68.17
2019-02-02T21:31:53.712Z,69.63
2019-02-02T21:34:26.950Z,66.80
2019-02-02T21:37:01.024Z,61.47
2019-02-02T21:39:33.746Z,68.23
2019-02-02T21:42:05.863Z,66.20
2019-02-02T21:44:43.358Z,59.50
2019-02-02T21:47:13.769Z,63.40
2019-02-02T21:49:49.322Z,77.43
2019-02-02T21:52:21.807Z,69.87
2019-02-02T21:54:55.688Z,60.13
2019-02-02T21:57:27.045Z,62.60
2019-02-02T22:00:00.778Z,59.47
2019-02-02T22:02:32.495Z,55.37
2019-02-02T22:05:07.089Z,56.70
2019-02-02T22:07:40.043Z,54.47
2019-02-02T22:10:12.969Z,53.07
2019-02-02T22:12:46.855Z,47.17
2019-02-02T22:15:20.540Z,47.90
2019-02-02T22:17:51.991Z,47.60
2019-02-02T22:20:26.193Z,53.00
2019-02-02T22:23:00.009Z,54.70
2019-02-02T22:25:34.009Z,55.90
2019-02-02T22:28:05.779Z,55.63
2019-02-02T22:30:39.201Z,55.30
2019-02-02T22:33:13.133Z,55.85
2019-02-02T22:35:47.005Z,56.27
2019-02-02T22:38:20.989Z,57.87
2019-02-02T22:40:54.984Z,58.20
2019-02-02T22:43:27.117Z,58.33
2019-02-02T22:45:59.030Z,56.70
2019-02-02T22:48:30.586Z,53.10
2019-02-02T22:51:01.919Z,54.00
2019-02-02T22:53:36.049Z,53.33
2019-02-02T22:56:11.870Z,53.40
2019-02-02T22:58:43.133Z,55.10
2019-02-02T23:01:39.161Z,56.00
2019-02-02T23:04:56.996Z,56.27
2019-02-02T23:07:53.548Z,51.80
2019-02-02T23:10:58.580Z,51.93
2019-02-02T23:14:06.037Z,53.60
2019-02-02T23:16:39.081Z,55.10
2019-02-02T23:19:12.812Z,53.15
2019-02-02T23:21:46.429Z,51.47
2019-02-02T23:24:20.259Z,52.03
2019-02-02T23:26:54.306Z,53.50
2019-02-02T23:29:27.262Z,53.65
2019-02-02T23:31:59.155Z,51.57
2019-02-02T23:34:33.793Z,53.40
2019-02-02T23:37:07.654Z,54.53
2019-02-02T23:39:41.280Z,53.30
2019-02-02T23:42:16.899Z,54.43
2019-02-02T23:44:49.500Z,54.80
2019-02-02T23:47:21.242Z,54.37
2019-02-02T23:49:54.305Z,54.17
2019-02-02T23:52:25.582Z,52.43
2019-02-02T23:54:59.381Z,55.50
2019-02-02T23:57:34.998Z,53.75
